sensor_id;sensor_type;location;lat;lon;timestamp;pressure;altitude;pressure_sealevel;temperature;humidity
21185;BME280;18176;49.502;11.754;2024-01-27T00:01:28;98370.25;;;10.27;52.67
21185;BME280;18176;49.502;11.754;2024-01-27T00:05:49;98379.56;;;10.02;53.72
21185;BME280;18176;49.502;11.754;2024-01-27T00:10:10;98375.06;;;9.75;54.29
21185;BME280;18176;49.502;11.754;2024-01-27T00:14:33;98379.16;;;9.77;54.21
21185;BME280;18176;49.502;11.754;2024-01-27T00:18:54;98387.66;;;9.73;54.23
21185;BME280;18176;49.502;11.754;2024-01-27T00:23:15;98401.28;;;9.91;54.19
21185;BME280;18176;49.502;11.754;2024-01-27T00:27:36;98381.75;;;9.92;53.64
21185;BME280;18176;49.502;11.754;2024-01-27T00:31:59;98406.78;;;9.89;53.82
21185;BME280;18176;49.502;11.754;2024-01-27T00:36:20;98408.78;;;9.66;54.49
21185;BME280;18176;49.502;11.754;2024-01-27T00:40:41;98420.56;;;9.64;54.64
21185;BME280;18176;49.502;11.754;2024-01-27T00:45:01;98418.13;;;9.48;55.20
21185;BME280;18176;49.502;11.754;2024-01-27T00:49:25;98406.94;;;9.46;55.00
21185;BME280;18176;49.502;11.754;2024-01-27T00:53:46;98405.41;;;9.58;54.77
21185;BME280;18176;49.502;11.754;2024-01-27T00:58:07;98414.91;;;9.67;54.36
21185;BME280;18176;49.502;11.754;2024-01-27T01:02:28;98421.16;;;9.80;53.66
21185;BME280;18176;49.502;11.754;2024-01-27T01:06:51;98409.50;;;9.60;53.77
21185;BME280;18176;49.502;11.754;2024-01-27T01:11:12;98410.94;;;9.42;54.31
21185;BME280;18176;49.502;11.754;2024-01-27T01:15:33;98431.44;;;9.54;54.12
21185;BME280;18176;49.502;11.754;2024-01-27T01:19:53;98450.59;;;9.42;54.56
21185;BME280;18176;49.502;11.754;2024-01-27T01:24:17;98451.09;;;9.31;54.98
21185;BME280;18176;49.502;11.754;2024-01-27T01:28:37;98447.44;;;9.32;54.59
21185;BME280;18176;49.502;11.754;2024-01-27T01:32:58;98451.56;;;9.19;55.02
21185;BME280;18176;49.502;11.754;2024-01-27T01:37:19;98428.94;;;9.17;54.91
21185;BME280;18176;49.502;11.754;2024-01-27T01:41:42;98455.66;;;9.37;54.41
21185;BME280;18176;49.502;11.754;2024-01-27T01:46:03;98454.28;;;9.26;54.91
21185;BME280;18176;49.502;11.754;2024-01-27T01:50:24;98441.69;;;9.28;55.00
21185;BME280;18176;49.502;11.754;2024-01-27T01:54:46;98439.53;;;9.32;54.59
21185;BME280;18176;49.502;11.754;2024-01-27T01:59:10;98431.66;;;9.24;54.78
21185;BME280;18176;49.502;11.754;2024-01-27T02:03:31;98445.38;;;9.27;54.66
21185;BME280;18176;49.502;11.754;2024-01-27T02:07:51;98445.88;;;9.37;54.53
21185;BME280;18176;49.502;11.754;2024-01-27T02:12:14;98461.59;;;9.09;55.52
21185;BME280;18176;49.502;11.754;2024-01-27T02:16:37;98461.03;;;9.43;54.21
21185;BME280;18176;49.502;11.754;2024-01-27T02:20:58;98471.25;;;9.32;54.77
21185;BME280;18176;49.502;11.754;2024-01-27T02:25:21;98476.09;;;9.13;55.11
21185;BME280;18176;49.502;11.754;2024-01-27T02:29:42;98481.91;;;9.24;55.33
21185;BME280;18176;49.502;11.754;2024-01-27T02:34:02;98477.28;;;9.11;54.99
21185;BME280;18176;49.502;11.754;2024-01-27T02:38:23;98470.19;;;9.11;55.18
21185;BME280;18176;49.502;11.754;2024-01-27T02:42:46;98467.16;;;9.14;54.97
21185;BME280;18176;49.502;11.754;2024-01-27T02:47:07;98481.00;;;9.16;55.16
21185;BME280;18176;49.502;11.754;2024-01-27T02:51:28;98493.06;;;9.04;55.41
21185;BME280;18176;49.502;11.754;2024-01-27T02:55:48;98485.00;;;9.42;54.16
21185;BME280;18176;49.502;11.754;2024-01-27T03:00:13;98490.97;;;9.14;54.90
21185;BME280;18176;49.502;11.754;2024-01-27T03:04:35;98479.31;;;8.57;56.35
21185;BME280;18176;49.502;11.754;2024-01-27T03:08:55;98455.00;;;8.62;55.59
21185;BME280;18176;49.502;11.754;2024-01-27T03:13:16;98494.25;;;9.02;55.16
21185;BME280;18176;49.502;11.754;2024-01-27T03:17:40;98501.81;;;9.05;54.87
21185;BME280;18176;49.502;11.754;2024-01-27T03:22:00;98515.50;;;9.08;54.77
21185;BME280;18176;49.502;11.754;2024-01-27T03:26:21;98521.50;;;8.88;55.05
21185;BME280;18176;49.502;11.754;2024-01-27T03:30:42;98501.44;;;8.93;54.40
21185;BME280;18176;49.502;11.754;2024-01-27T03:35:06;98451.84;;;8.81;53.70
21185;BME280;18176;49.502;11.754;2024-01-27T03:39:27;98535.25;;;8.98;54.28
21185;BME280;18176;49.502;11.754;2024-01-27T03:43:48;98549.41;;;9.05;53.99
21185;BME280;18176;49.502;11.754;2024-01-27T03:48:09;98546.91;;;8.89;54.59
21185;BME280;18176;49.502;11.754;2024-01-27T03:52:32;98533.03;;;8.49;55.44
21185;BME280;18176;49.502;11.754;2024-01-27T03:56:56;98549.03;;;8.56;55.38
21185;BME280;18176;49.502;11.754;2024-01-27T04:01:17;98554.53;;;8.69;54.58
21185;BME280;18176;49.502;11.754;2024-01-27T04:05:38;98573.13;;;8.76;54.57
21185;BME280;18176;49.502;11.754;2024-01-27T04:10:02;98565.13;;;8.46;55.08
21185;BME280;18176;49.502;11.754;2024-01-27T04:14:23;98527.44;;;7.99;55.35
21185;BME280;18176;49.502;11.754;2024-01-27T04:18:44;98545.78;;;7.93;55.81
21185;BME280;18176;49.502;11.754;2024-01-27T04:23:05;98570.06;;;8.19;55.64
21185;BME280;18176;49.502;11.754;2024-01-27T04:27:29;98582.25;;;8.20;55.75
21185;BME280;18176;49.502;11.754;2024-01-27T04:31:50;98590.84;;;8.22;56.18
21185;BME280;18176;49.502;11.754;2024-01-27T04:36:11;98600.72;;;8.28;55.94
21185;BME280;18176;49.502;11.754;2024-01-27T04:40:32;98602.72;;;8.26;55.27
21185;BME280;18176;49.502;11.754;2024-01-27T04:44:56;98612.00;;;8.14;55.55
21185;BME280;18176;49.502;11.754;2024-01-27T04:49:16;98618.41;;;7.89;56.57
21185;BME280;18176;49.502;11.754;2024-01-27T04:53:37;98587.03;;;7.94;56.02
21185;BME280;18176;49.502;11.754;2024-01-27T04:57:58;98615.69;;;8.05;55.40
21185;BME280;18176;49.502;11.754;2024-01-27T05:02:21;98619.03;;;7.91;55.54
21185;BME280;18176;49.502;11.754;2024-01-27T05:06:44;98605.97;;;7.66;55.81
21185;BME280;18176;49.502;11.754;2024-01-27T05:11:07;98583.72;;;7.53;55.90
21185;BME280;18176;49.502;11.754;2024-01-27T05:15:28;98634.44;;;7.79;56.13
21185;BME280;18176;49.502;11.754;2024-01-27T05:19:52;98629.66;;;7.74;55.51
21185;BME280;18176;49.502;11.754;2024-01-27T05:24:13;98639.25;;;7.67;55.22
21185;BME280;18176;49.502;11.754;2024-01-27T05:28:34;98640.53;;;7.71;55.99
21185;BME280;18176;49.502;11.754;2024-01-27T05:32:55;98638.53;;;7.82;55.70
21185;BME280;18176;49.502;11.754;2024-01-27T05:37:18;98647.81;;;7.77;55.96
21185;BME280;18176;49.502;11.754;2024-01-27T05:41:39;98627.41;;;7.63;55.94
21185;BME280;18176;49.502;11.754;2024-01-27T05:45:59;98631.31;;;7.75;55.46
21185;BME280;18176;49.502;11.754;2024-01-27T05:50:20;98639.94;;;7.53;56.62
21185;BME280;18176;49.502;11.754;2024-01-27T05:54:43;98664.28;;;7.71;56.60
21185;BME280;18176;49.502;11.754;2024-01-27T05:59:04;98658.03;;;7.72;56.42
21185;BME280;18176;49.502;11.754;2024-01-27T06:03:24;98640.59;;;7.63;56.28
21185;BME280;18176;49.502;11.754;2024-01-27T06:07:45;98630.34;;;7.68;56.19
21185;BME280;18176;49.502;11.754;2024-01-27T06:12:09;98658.50;;;7.76;56.21
21185;BME280;18176;49.502;11.754;2024-01-27T06:16:30;98637.78;;;7.65;56.05
21185;BME280;18176;49.502;11.754;2024-01-27T06:20:53;98660.00;;;7.78;56.09
21185;BME280;18176;49.502;11.754;2024-01-27T06:25:14;98666.28;;;7.77;55.94
21185;BME280;18176;49.502;11.754;2024-01-27T06:29:38;98668.88;;;7.86;55.79
21185;BME280;18176;49.502;11.754;2024-01-27T06:33:59;98673.13;;;7.95;55.37
21185;BME280;18176;49.502;11.754;2024-01-27T06:38:20;98679.38;;;8.02;54.59
21185;BME280;18176;49.502;11.754;2024-01-27T06:42:41;98682.09;;;7.77;55.42
21185;BME280;18176;49.502;11.754;2024-01-27T06:47:04;98669.28;;;7.66;55.66
21185;BME280;18176;49.502;11.754;2024-01-27T06:51:25;98703.53;;;7.74;55.96
21185;BME280;18176;49.502;11.754;2024-01-27T06:55:46;98694.59;;;7.92;55.17
21185;BME280;18176;49.502;11.754;2024-01-27T07:00:08;98711.03;;;8.10;54.98
21185;BME280;18176;49.502;11.754;2024-01-27T07:04:36;98712.56;;;7.96;54.88
21185;BME280;18176;49.502;11.754;2024-01-27T07:08:57;98723.34;;;7.70;55.98
21185;BME280;18176;49.502;11.754;2024-01-27T07:13:17;98697.63;;;7.64;55.87
21185;BME280;18176;49.502;11.754;2024-01-27T07:17:38;98699.97;;;8.14;54.91
21185;BME280;18176;49.502;11.754;2024-01-27T07:22:01;98712.72;;;8.03;55.24
21185;BME280;18176;49.502;11.754;2024-01-27T07:26:22;98715.19;;;8.43;54.03
21185;BME280;18176;49.502;11.754;2024-01-27T07:30:43;98711.97;;;8.25;54.31
21185;BME280;18176;49.502;11.754;2024-01-27T07:35:05;98716.88;;;8.44;53.90
21185;BME280;18176;49.502;11.754;2024-01-27T07:39:29;98721.50;;;8.42;54.43
21185;BME280;18176;49.502;11.754;2024-01-27T07:43:49;98725.97;;;8.72;53.72
21185;BME280;18176;49.502;11.754;2024-01-27T07:48:10;98721.97;;;8.76;53.15
21185;BME280;18176;49.502;11.754;2024-01-27T07:52:31;98719.50;;;8.75;53.34
21185;BME280;18176;49.502;11.754;2024-01-27T07:56:54;98710.56;;;8.98;53.00
21185;BME280;18176;49.502;11.754;2024-01-27T08:01:15;98706.72;;;8.86;53.26
21185;BME280;18176;49.502;11.754;2024-01-27T08:05:36;98702.47;;;9.23;52.19
21185;BME280;18176;49.502;11.754;2024-01-27T08:09:57;98690.47;;;9.12;51.66
21185;BME280;18176;49.502;11.754;2024-01-27T08:14:20;98694.88;;;9.57;51.29
21185;BME280;18176;49.502;11.754;2024-01-27T08:18:42;98679.19;;;9.70;50.33
21185;BME280;18176;49.502;11.754;2024-01-27T08:23:03;98712.44;;;9.87;49.95
21185;BME280;18176;49.502;11.754;2024-01-27T08:27:24;98730.28;;;9.56;50.49
21185;BME280;18176;49.502;11.754;2024-01-27T08:31:47;98727.50;;;9.35;50.78
21185;BME280;18176;49.502;11.754;2024-01-27T08:36:13;98735.56;;;9.56;50.40
21185;BME280;18176;49.502;11.754;2024-01-27T08:40:33;98747.72;;;10.46;48.90
21185;BME280;18176;49.502;11.754;2024-01-27T08:44:54;98740.38;;;11.19;47.53
21185;BME280;18176;49.502;11.754;2024-01-27T08:49:17;98738.69;;;11.33;46.08
21185;BME280;18176;49.502;11.754;2024-01-27T08:53:38;98751.19;;;11.60;45.16
21185;BME280;18176;49.502;11.754;2024-01-27T08:58:00;98752.50;;;11.50;45.37
21185;BME280;18176;49.502;11.754;2024-01-27T09:02:20;98762.44;;;11.20;46.28
21185;BME280;18176;49.502;11.754;2024-01-27T09:06:44;98748.13;;;10.64;47.04
21185;BME280;18176;49.502;11.754;2024-01-27T09:11:05;98759.28;;;11.52;45.88
21185;BME280;18176;49.502;11.754;2024-01-27T09:15:27;98765.41;;;10.75;47.10
21185;BME280;18176;49.502;11.754;2024-01-27T09:19:47;98775.78;;;11.69;45.50
21185;BME280;18176;49.502;11.754;2024-01-27T09:24:11;98786.63;;;12.57;43.74
21185;BME280;18176;49.502;11.754;2024-01-27T09:28:33;98781.13;;;12.65;43.36
21185;BME280;18176;49.502;11.754;2024-01-27T09:32:55;98777.31;;;12.87;42.63
21185;BME280;18176;49.502;11.754;2024-01-27T09:37:18;98794.69;;;12.08;43.65
21185;BME280;18176;49.502;11.754;2024-01-27T09:41:48;98803.06;;;11.63;45.12
21185;BME280;18176;49.502;11.754;2024-01-27T09:46:10;98810.66;;;11.87;44.76
21185;BME280;18176;49.502;11.754;2024-01-27T09:50:30;98814.03;;;11.53;45.94
21185;BME280;18176;49.502;11.754;2024-01-27T09:54:51;98801.94;;;11.72;45.03
21185;BME280;18176;49.502;11.754;2024-01-27T09:59:16;98803.84;;;11.57;45.33
21185;BME280;18176;49.502;11.754;2024-01-27T10:03:41;98802.38;;;11.33;45.94
21185;BME280;18176;49.502;11.754;2024-01-27T10:08:02;98801.38;;;12.66;43.98
21185;BME280;18176;49.502;11.754;2024-01-27T10:12:29;98812.75;;;12.94;43.16
21185;BME280;18176;49.502;11.754;2024-01-27T10:16:53;98812.34;;;13.51;42.73
21185;BME280;18176;49.502;11.754;2024-01-27T10:21:15;98814.78;;;13.46;42.16
21185;BME280;18176;49.502;11.754;2024-01-27T10:25:38;98814.00;;;13.85;40.45
21185;BME280;18176;49.502;11.754;2024-01-27T10:29:59;98824.06;;;15.06;39.76
21185;BME280;18176;49.502;11.754;2024-01-27T10:34:23;98824.59;;;15.65;38.44
21185;BME280;18176;49.502;11.754;2024-01-27T10:38:43;98816.28;;;15.42;37.78
21185;BME280;18176;49.502;11.754;2024-01-27T10:43:06;98815.13;;;14.81;38.93
21185;BME280;18176;49.502;11.754;2024-01-27T10:47:28;98808.03;;;15.43;38.24
21185;BME280;18176;49.502;11.754;2024-01-27T10:51:55;98806.16;;;16.49;36.77
21185;BME280;18176;49.502;11.754;2024-01-27T10:56:17;98803.47;;;15.13;37.67
21185;BME280;18176;49.502;11.754;2024-01-27T11:00:40;98810.69;;;14.61;39.16
21185;BME280;18176;49.502;11.754;2024-01-27T11:05:04;98818.47;;;14.56;39.29
21185;BME280;18176;49.502;11.754;2024-01-27T11:09:29;98788.19;;;13.92;39.66
21185;BME280;18176;49.502;11.754;2024-01-27T11:13:51;98799.72;;;15.27;38.24
21185;BME280;18176;49.502;11.754;2024-01-27T11:18:12;98804.41;;;15.69;37.56
21185;BME280;18176;49.502;11.754;2024-01-27T11:22:35;98806.09;;;14.82;38.06
21185;BME280;18176;49.502;11.754;2024-01-27T11:27:04;98775.66;;;14.96;38.79
21185;BME280;18176;49.502;11.754;2024-01-27T11:31:27;98789.16;;;15.45;37.63
21185;BME280;18176;49.502;11.754;2024-01-27T11:35:48;98779.47;;;16.25;36.00
21185;BME280;18176;49.502;11.754;2024-01-27T11:40:11;98783.47;;;16.15;36.06
21185;BME280;18176;49.502;11.754;2024-01-27T11:44:37;98782.50;;;16.28;36.61
21185;BME280;18176;49.502;11.754;2024-01-27T11:48:58;98782.22;;;17.57;33.99
21185;BME280;18176;49.502;11.754;2024-01-27T11:53:23;98781.03;;;17.52;33.33
21185;BME280;18176;49.502;11.754;2024-01-27T11:57:44;98783.53;;;17.47;33.29
21185;BME280;18176;49.502;11.754;2024-01-27T12:02:11;98767.44;;;17.47;33.38
21185;BME280;18176;49.502;11.754;2024-01-27T12:06:32;98780.31;;;18.33;32.09
21185;BME280;18176;49.502;11.754;2024-01-27T12:10:53;98771.09;;;18.06;32.73
21185;BME280;18176;49.502;11.754;2024-01-27T12:15:14;98767.44;;;16.88;33.88
21185;BME280;18176;49.502;11.754;2024-01-27T12:19:46;98773.41;;;17.08;33.78
21185;BME280;18176;49.502;11.754;2024-01-27T12:24:16;98767.78;;;17.39;33.93
21185;BME280;18176;49.502;11.754;2024-01-27T12:28:39;98766.75;;;17.82;32.42
21185;BME280;18176;49.502;11.754;2024-01-27T12:33:00;98756.91;;;19.20;31.71
21185;BME280;18176;49.502;11.754;2024-01-27T12:37:24;98744.63;;;19.85;29.39
21185;BME280;18176;49.502;11.754;2024-01-27T12:41:46;98752.88;;;18.54;31.62
21185;BME280;18176;49.502;11.754;2024-01-27T12:46:07;98746.63;;;19.17;30.70
21185;BME280;18176;49.502;11.754;2024-01-27T12:50:31;98731.88;;;18.51;30.87
21185;BME280;18176;49.502;11.754;2024-01-27T12:54:55;98754.28;;;18.57;31.78
21185;BME280;18176;49.502;11.754;2024-01-27T12:59:15;98758.59;;;18.69;31.41
21185;BME280;18176;49.502;11.754;2024-01-27T13:03:39;98754.25;;;19.08;31.12
21185;BME280;18176;49.502;11.754;2024-01-27T13:08:03;98745.91;;;19.99;29.73
21185;BME280;18176;49.502;11.754;2024-01-27T13:12:26;98730.38;;;18.83;31.02
21185;BME280;18176;49.502;11.754;2024-01-27T13:16:47;98745.09;;;19.99;29.69
21185;BME280;18176;49.502;11.754;2024-01-27T13:21:08;98753.38;;;20.90;27.86
21185;BME280;18176;49.502;11.754;2024-01-27T13:25:28;98755.69;;;20.39;28.99
21185;BME280;18176;49.502;11.754;2024-01-27T13:29:52;98748.50;;;19.44;29.86
21185;BME280;18176;49.502;11.754;2024-01-27T13:34:12;98766.66;;;18.23;31.63
21185;BME280;18176;49.502;11.754;2024-01-27T13:38:33;98748.78;;;17.71;32.44
21185;BME280;18176;49.502;11.754;2024-01-27T13:42:53;98704.38;;;18.21;31.59
21185;BME280;18176;49.502;11.754;2024-01-27T13:47:18;98751.69;;;19.30;31.56
21185;BME280;18176;49.502;11.754;2024-01-27T13:51:39;98735.81;;;18.60;31.41
21185;BME280;18176;49.502;11.754;2024-01-27T13:56:00;98731.28;;;18.49;31.96
21185;BME280;18176;49.502;11.754;2024-01-27T14:00:22;98735.03;;;18.60;32.10
21185;BME280;18176;49.502;11.754;2024-01-27T14:04:46;98743.53;;;19.25;31.21
21185;BME280;18176;49.502;11.754;2024-01-27T14:09:07;98740.28;;;18.95;31.24
21185;BME280;18176;49.502;11.754;2024-01-27T14:13:28;98726.03;;;18.43;31.46
21185;BME280;18176;49.502;11.754;2024-01-27T14:17:48;98713.81;;;17.54;32.94
21185;BME280;18176;49.502;11.754;2024-01-27T14:22:12;98719.88;;;17.31;33.34
21185;BME280;18176;49.502;11.754;2024-01-27T14:26:33;98710.16;;;18.41;31.74
21185;BME280;18176;49.502;11.754;2024-01-27T14:30:54;98699.59;;;19.03;30.82
21185;BME280;18176;49.502;11.754;2024-01-27T14:35:15;98713.00;;;18.46;31.47
21185;BME280;18176;49.502;11.754;2024-01-27T14:39:38;98703.88;;;18.24;31.68
21185;BME280;18176;49.502;11.754;2024-01-27T14:44:00;98708.47;;;17.89;32.30
21185;BME280;18176;49.502;11.754;2024-01-27T14:48:20;98704.84;;;17.95;32.69
21185;BME280;18176;49.502;11.754;2024-01-27T14:52:41;98705.09;;;17.82;32.36
21185;BME280;18176;49.502;11.754;2024-01-27T14:57:05;98723.13;;;17.51;32.79
21185;BME280;18176;49.502;11.754;2024-01-27T15:01:28;98738.06;;;17.00;33.13
21185;BME280;18176;49.502;11.754;2024-01-27T15:05:49;98726.25;;;16.89;33.40
21185;BME280;18176;49.502;11.754;2024-01-27T15:10:10;98724.72;;;16.45;33.95
21185;BME280;18176;49.502;11.754;2024-01-27T15:14:35;98747.78;;;16.64;33.77
21185;BME280;18176;49.502;11.754;2024-01-27T15:18:55;98750.22;;;16.48;34.35
21185;BME280;18176;49.502;11.754;2024-01-27T15:23:16;98751.19;;;16.71;33.93
21185;BME280;18176;49.502;11.754;2024-01-27T15:27:42;98725.97;;;16.43;34.28
21185;BME280;18176;49.502;11.754;2024-01-27T15:32:06;98749.56;;;16.09;34.97
21185;BME280;18176;49.502;11.754;2024-01-27T15:36:27;98752.84;;;16.11;35.25
21185;BME280;18176;49.502;11.754;2024-01-27T15:40:48;98734.22;;;15.80;35.31
21185;BME280;18176;49.502;11.754;2024-01-27T15:45:09;98733.13;;;15.32;35.88
21185;BME280;18176;49.502;11.754;2024-01-27T15:49:32;98759.34;;;14.66;37.26
21185;BME280;18176;49.502;11.754;2024-01-27T15:53:54;98762.72;;;14.35;37.84
21185;BME280;18176;49.502;11.754;2024-01-27T15:58:14;98750.06;;;13.72;38.47
21185;BME280;18176;49.502;11.754;2024-01-27T16:02:35;98759.88;;;13.25;39.23
21185;BME280;18176;49.502;11.754;2024-01-27T16:06:58;98763.47;;;12.98;40.46
21185;BME280;18176;49.502;11.754;2024-01-27T16:11:19;98743.25;;;12.56;41.46
21185;BME280;18176;49.502;11.754;2024-01-27T16:15:39;98744.91;;;12.23;42.14
21185;BME280;18176;49.502;11.754;2024-01-27T16:20:00;98773.47;;;12.15;42.80
21185;BME280;18176;49.502;11.754;2024-01-27T16:24:23;98765.47;;;11.80;43.43
21185;BME280;18176;49.502;11.754;2024-01-27T16:28:44;98788.78;;;11.64;43.87
21185;BME280;18176;49.502;11.754;2024-01-27T16:33:05;98791.13;;;11.52;44.21
21185;BME280;18176;49.502;11.754;2024-01-27T16:37:26;98806.16;;;11.24;45.21
21185;BME280;18176;49.502;11.754;2024-01-27T16:41:49;98817.34;;;11.19;44.91
21185;BME280;18176;49.502;11.754;2024-01-27T16:46:10;98824.81;;;10.95;45.64
21185;BME280;18176;49.502;11.754;2024-01-27T16:50:31;98822.81;;;10.82;45.54
21185;BME280;18176;49.502;11.754;2024-01-27T16:54:51;98805.66;;;10.64;46.26
21185;BME280;18176;49.502;11.754;2024-01-27T16:59:15;98816.47;;;10.47;46.66
21185;BME280;18176;49.502;11.754;2024-01-27T17:03:36;98819.56;;;10.66;47.86
21185;BME280;18176;49.502;11.754;2024-01-27T17:07:57;98827.50;;;10.51;47.29
21185;BME280;18176;49.502;11.754;2024-01-27T17:12:18;98830.69;;;10.17;47.38
21185;BME280;18176;49.502;11.754;2024-01-27T17:16:41;98837.06;;;9.85;48.12
21185;BME280;18176;49.502;11.754;2024-01-27T17:21:02;98840.63;;;9.78;48.09
21185;BME280;18176;49.502;11.754;2024-01-27T17:25:23;98847.50;;;9.64;48.47
21185;BME280;18176;49.502;11.754;2024-01-27T17:29:43;98835.19;;;9.49;49.10
21185;BME280;18176;49.502;11.754;2024-01-27T17:34:06;98828.63;;;9.45;48.76
21185;BME280;18176;49.502;11.754;2024-01-27T17:38:27;98817.97;;;9.30;49.35
21185;BME280;18176;49.502;11.754;2024-01-27T17:42:48;98822.75;;;9.35;49.41
21185;BME280;18176;49.502;11.754;2024-01-27T17:47:09;98826.81;;;9.14;49.29
21185;BME280;18176;49.502;11.754;2024-01-27T17:51:32;98825.88;;;9.07;49.73
21185;BME280;18176;49.502;11.754;2024-01-27T17:55:53;98787.03;;;8.77;49.95
21185;BME280;18176;49.502;11.754;2024-01-27T18:00:15;98813.19;;;8.72;50.73
21185;BME280;18176;49.502;11.754;2024-01-27T18:04:36;98830.66;;;8.73;50.36
21185;BME280;18176;49.502;11.754;2024-01-27T18:08:59;98831.06;;;8.62;50.31
21185;BME280;18176;49.502;11.754;2024-01-27T18:13:21;98849.53;;;8.62;50.41
21185;BME280;18176;49.502;11.754;2024-01-27T18:17:42;98843.38;;;8.31;50.69
21185;BME280;18176;49.502;11.754;2024-01-27T18:22:03;98863.00;;;8.36;50.75
21185;BME280;18176;49.502;11.754;2024-01-27T18:26:27;98868.78;;;8.24;51.22
21185;BME280;18176;49.502;11.754;2024-01-27T18:30:47;98881.66;;;8.03;51.21
21185;BME280;18176;49.502;11.754;2024-01-27T18:35:08;98857.91;;;7.78;51.37
21185;BME280;18176;49.502;11.754;2024-01-27T18:39:30;98886.94;;;7.87;51.40
21185;BME280;18176;49.502;11.754;2024-01-27T18:43:53;98863.50;;;7.67;51.72
21185;BME280;18176;49.502;11.754;2024-01-27T18:48:14;98876.38;;;7.70;51.69
21185;BME280;18176;49.502;11.754;2024-01-27T18:52:36;98878.72;;;7.73;52.09
21185;BME280;18176;49.502;11.754;2024-01-27T18:56:57;98888.94;;;7.68;52.08
21185;BME280;18176;49.502;11.754;2024-01-27T19:01:21;98879.97;;;7.53;52.20
21185;BME280;18176;49.502;11.754;2024-01-27T19:05:42;98858.84;;;7.37;52.10
21185;BME280;18176;49.502;11.754;2024-01-27T19:10:04;98898.28;;;7.39;52.62
21185;BME280;18176;49.502;11.754;2024-01-27T19:14:25;98910.28;;;7.33;53.15
21185;BME280;18176;49.502;11.754;2024-01-27T19:18:48;98912.63;;;7.36;52.96
21185;BME280;18176;49.502;11.754;2024-01-27T19:23:09;98892.25;;;7.13;52.66
21185;BME280;18176;49.502;11.754;2024-01-27T19:27:29;98893.63;;;7.33;52.33
21185;BME280;18176;49.502;11.754;2024-01-27T19:31:53;98908.63;;;7.32;52.18
21185;BME280;18176;49.502;11.754;2024-01-27T19:36:17;98908.97;;;7.29;51.86
21185;BME280;18176;49.502;11.754;2024-01-27T19:40:37;98872.97;;;7.04;52.11
21185;BME280;18176;49.502;11.754;2024-01-27T19:44:58;98913.28;;;7.38;51.38
21185;BME280;18176;49.502;11.754;2024-01-27T19:49:18;98881.41;;;7.16;52.01
21185;BME280;18176;49.502;11.754;2024-01-27T19:53:42;98912.91;;;7.25;52.00
21185;BME280;18176;49.502;11.754;2024-01-27T19:58:03;98907.91;;;7.06;52.74
21185;BME280;18176;49.502;11.754;2024-01-27T20:02:23;98903.09;;;7.01;52.68
21185;BME280;18176;49.502;11.754;2024-01-27T20:06:44;98904.19;;;6.91;53.02
21185;BME280;18176;49.502;11.754;2024-01-27T20:11:09;98920.34;;;6.88;53.12
21185;BME280;18176;49.502;11.754;2024-01-27T20:15:30;98898.16;;;6.65;52.81
21185;BME280;18176;49.502;11.754;2024-01-27T20:19:51;98905.91;;;6.66;52.66
21185;BME280;18176;49.502;11.754;2024-01-27T20:24:13;98888.88;;;6.53;53.37
21185;BME280;18176;49.502;11.754;2024-01-27T20:28:36;98903.31;;;6.74;53.13
21185;BME280;18176;49.502;11.754;2024-01-27T20:32:57;98905.06;;;6.66;52.58
21185;BME280;18176;49.502;11.754;2024-01-27T20:37:18;98902.09;;;6.61;52.82
21185;BME280;18176;49.502;11.754;2024-01-27T20:41:38;98904.88;;;6.59;52.92
21185;BME280;18176;49.502;11.754;2024-01-27T20:46:02;98904.97;;;6.50;52.53
21185;BME280;18176;49.502;11.754;2024-01-27T20:50:24;98913.03;;;6.48;52.63
21185;BME280;18176;49.502;11.754;2024-01-27T20:54:45;98902.63;;;6.38;52.82
21185;BME280;18176;49.502;11.754;2024-01-27T20:59:06;98901.94;;;6.36;53.14
21185;BME280;18176;49.502;11.754;2024-01-27T21:03:29;98896.84;;;6.35;52.60
21185;BME280;18176;49.502;11.754;2024-01-27T21:07:50;98887.00;;;6.19;53.23
21185;BME280;18176;49.502;11.754;2024-01-27T21:12:11;98893.94;;;6.20;52.48
21185;BME280;18176;49.502;11.754;2024-01-27T21:16:32;98887.94;;;6.10;53.01
21185;BME280;18176;49.502;11.754;2024-01-27T21:20:55;98904.59;;;5.93;52.83
21185;BME280;18176;49.502;11.754;2024-01-27T21:25:16;98904.53;;;5.85;54.20
21185;BME280;18176;49.502;11.754;2024-01-27T21:29:37;98900.94;;;5.86;53.71
21185;BME280;18176;49.502;11.754;2024-01-27T21:33:58;98898.66;;;5.91;53.51
21185;BME280;18176;49.502;11.754;2024-01-27T21:38:21;98889.03;;;5.82;53.31
21185;BME280;18176;49.502;11.754;2024-01-27T21:42:42;98887.81;;;5.94;53.03
21185;BME280;18176;49.502;11.754;2024-01-27T21:47:03;98873.94;;;5.84;53.12
21185;BME280;18176;49.502;11.754;2024-01-27T21:51:24;98882.72;;;5.75;53.63
21185;BME280;18176;49.502;11.754;2024-01-27T21:55:47;98879.72;;;5.70;53.72
21185;BME280;18176;49.502;11.754;2024-01-27T22:00:10;98867.09;;;5.56;53.86
21185;BME280;18176;49.502;11.754;2024-01-27T22:04:31;98880.22;;;5.74;53.08
21185;BME280;18176;49.502;11.754;2024-01-27T22:08:52;98885.59;;;5.64;53.62
21185;BME280;18176;49.502;11.754;2024-01-27T22:13:15;98878.56;;;5.55;53.90
21185;BME280;18176;49.502;11.754;2024-01-27T22:17:36;98857.47;;;5.47;53.53
21185;BME280;18176;49.502;11.754;2024-01-27T22:21:58;98861.97;;;5.37;53.74
21185;BME280;18176;49.502;11.754;2024-01-27T22:26:19;98862.19;;;5.26;53.75
21185;BME280;18176;49.502;11.754;2024-01-27T22:30:43;98858.69;;;5.35;53.67
21185;BME280;18176;49.502;11.754;2024-01-27T22:35:05;98863.53;;;5.30;53.62
21185;BME280;18176;49.502;11.754;2024-01-27T22:39:26;98830.13;;;5.05;53.93
21185;BME280;18176;49.502;11.754;2024-01-27T22:43:48;98860.63;;;5.33;53.94
21185;BME280;18176;49.502;11.754;2024-01-27T22:48:13;98860.56;;;5.25;53.91
21185;BME280;18176;49.502;11.754;2024-01-27T22:52:36;98858.22;;;5.22;53.61
21185;BME280;18176;49.502;11.754;2024-01-27T22:56:58;98865.44;;;5.20;53.71